sensor_id;sensor_type;location;lat;lon;timestamp;temperature;humidity
22578;DHT22;11455;52.390;13.028;2023-01-26T00:01:51;3.70;99.90
22578;DHT22;11455;52.390;13.028;2023-01-26T00:04:18;3.70;99.90
22578;DHT22;11455;52.390;13.028;2023-01-26T00:06:43;3.60;99.90
22578;DHT22;11455;52.390;13.028;2023-01-26T00:09:11;3.60;99.90
22578;DHT22;11455;52.390;13.028;2023-01-26T00:11:37;3.60;99.90
22578;DHT22;11455;52.390;13.028;2023-01-26T00:14:03;3.60;99.90
22578;DHT22;11455;52.390;13.028;2023-01-26T00:16:29;3.50;99.90
22578;DHT22;11455;52.390;13.028;2023-01-26T00:18:54;3.50;99.90
22578;DHT22;11455;52.390;13.028;2023-01-26T00:21:21;3.60;99.90
22578;DHT22;11455;52.390;13.028;2023-01-26T00:23:47;3.70;99.90
22578;DHT22;11455;52.390;13.028;2023-01-26T00:26:14;3.60;99.90
22578;DHT22;11455;52.390;13.028;2023-01-26T00:28:40;3.60;99.90
22578;DHT22;11455;52.390;13.028;2023-01-26T00:31:07;3.60;99.90
22578;DHT22;11455;52.390;13.028;2023-01-26T00:33:35;3.60;99.90
22578;DHT22;11455;52.390;13.028;2023-01-26T00:36:01;3.60;99.90
22578;DHT22;11455;52.390;13.028;2023-01-26T00:38:26;3.60;99.90
22578;DHT22;11455;52.390;13.028;2023-01-26T00:40:52;3.50;99.90
22578;DHT22;11455;52.390;13.028;2023-01-26T00:43:22;3.60;99.90
22578;DHT22;11455;52.390;13.028;2023-01-26T00:45:50;3.60;99.90
22578;DHT22;11455;52.390;13.028;2023-01-26T00:48:16;3.60;99.90
22578;DHT22;11455;52.390;13.028;2023-01-26T00:50:42;3.50;99.90
22578;DHT22;11455;52.390;13.028;2023-01-26T00:53:08;3.40;99.90
22578;DHT22;11455;52.390;13.028;2023-01-26T00:55:33;3.20;99.90
22578;DHT22;11455;52.390;13.028;2023-01-26T00:58:00;3.10;99.90
22578;DHT22;11455;52.390;13.028;2023-01-26T01:00:28;3.10;99.90
22578;DHT22;11455;52.390;13.028;2023-01-26T01:02:54;3.00;99.90
22578;DHT22;11455;52.390;13.028;2023-01-26T01:05:24;3.00;99.90
22578;DHT22;11455;52.390;13.028;2023-01-26T01:07:50;3.00;99.90
22578;DHT22;11455;52.390;13.028;2023-01-26T01:10:15;2.80;99.90
22578;DHT22;11455;52.390;13.028;2023-01-26T01:12:41;2.80;99.90
22578;DHT22;11455;52.390;13.028;2023-01-26T01:15:07;2.80;99.90
22578;DHT22;11455;52.390;13.028;2023-01-26T01:17:33;2.80;99.90
22578;DHT22;11455;52.390;13.028;2023-01-26T01:20:01;2.90;99.90
22578;DHT22;11455;52.390;13.028;2023-01-26T01:22:27;2.80;99.90
22578;DHT22;11455;52.390;13.028;2023-01-26T01:24:53;2.80;99.90
22578;DHT22;11455;52.390;13.028;2023-01-26T01:27:19;2.80;99.90
22578;DHT22;11455;52.390;13.028;2023-01-26T01:29:45;2.80;99.90
22578;DHT22;11455;52.390;13.028;2023-01-26T01:32:10;2.90;99.90
22578;DHT22;11455;52.390;13.028;2023-01-26T01:34:36;2.90;99.90
22578;DHT22;11455;52.390;13.028;2023-01-26T01:37:02;3.00;99.90
22578;DHT22;11455;52.390;13.028;2023-01-26T01:39:27;2.90;99.90
22578;DHT22;11455;52.390;13.028;2023-01-26T01:41:53;2.90;99.90
22578;DHT22;11455;52.390;13.028;2023-01-26T01:44:20;2.90;99.90
22578;DHT22;11455;52.390;13.028;2023-01-26T01:47:02;2.80;99.90
22578;DHT22;11455;52.390;13.028;2023-01-26T01:49:29;3.00;99.90
22578;DHT22;11455;52.390;13.028;2023-01-26T01:54:36;3.10;99.90
22578;DHT22;11455;52.390;13.028;2023-01-26T01:57:05;3.20;99.90
22578;DHT22;11455;52.390;13.028;2023-01-26T01:59:59;3.20;99.90
22578;DHT22;11455;52.390;13.028;2023-01-26T02:02:28;3.20;99.90
22578;DHT22;11455;52.390;13.028;2023-01-26T02:04:54;3.10;99.90
22578;DHT22;11455;52.390;13.028;2023-01-26T02:07:22;2.90;99.90
22578;DHT22;11455;52.390;13.028;2023-01-26T02:09:48;2.90;99.90
22578;DHT22;11455;52.390;13.028;2023-01-26T02:12:32;2.90;99.90
22578;DHT22;11455;52.390;13.028;2023-01-26T02:14:59;2.80;99.90
22578;DHT22;11455;52.390;13.028;2023-01-26T02:17:25;2.90;99.90
22578;DHT22;11455;52.390;13.028;2023-01-26T02:22:31;3.00;99.90
22578;DHT22;11455;52.390;13.028;2023-01-26T02:25:01;2.90;99.90
22578;DHT22;11455;52.390;13.028;2023-01-26T02:27:30;2.80;99.90
22578;DHT22;11455;52.390;13.028;2023-01-26T02:29:55;2.80;99.90
22578;DHT22;11455;52.390;13.028;2023-01-26T02:32:22;2.70;99.90
22578;DHT22;11455;52.390;13.028;2023-01-26T02:34:54;2.60;99.90
22578;DHT22;11455;52.390;13.028;2023-01-26T02:37:20;2.60;99.90
22578;DHT22;11455;52.390;13.028;2023-01-26T02:39:47;2.60;99.90
22578;DHT22;11455;52.390;13.028;2023-01-26T02:42:15;2.60;99.90
22578;DHT22;11455;52.390;13.028;2023-01-26T02:44:59;2.60;99.90
22578;DHT22;11455;52.390;13.028;2023-01-26T02:47:29;2.60;99.90
22578;DHT22;11455;52.390;13.028;2023-01-26T02:49:55;2.70;99.90
22578;DHT22;11455;52.390;13.028;2023-01-26T02:52:26;2.70;99.90
22578;DHT22;11455;52.390;13.028;2023-01-26T02:54:57;2.80;99.90
22578;DHT22;11455;52.390;13.028;2023-01-26T02:57:42;2.90;99.90
22578;DHT22;11455;52.390;13.028;2023-01-26T03:00:09;3.00;99.90
22578;DHT22;11455;52.390;13.028;2023-01-26T03:02:36;3.10;99.90
22578;DHT22;11455;52.390;13.028;2023-01-26T03:05:02;3.10;99.90
22578;DHT22;11455;52.390;13.028;2023-01-26T03:07:29;3.20;99.90
22578;DHT22;11455;52.390;13.028;2023-01-26T03:09:55;3.20;99.90
22578;DHT22;11455;52.390;13.028;2023-01-26T03:12:20;3.20;99.90
22578;DHT22;11455;52.390;13.028;2023-01-26T03:14:46;3.30;99.90
22578;DHT22;11455;52.390;13.028;2023-01-26T03:17:31;3.40;99.90
22578;DHT22;11455;52.390;13.028;2023-01-26T03:19:57;3.40;99.90
22578;DHT22;11455;52.390;13.028;2023-01-26T03:22:41;3.30;99.90
22578;DHT22;11455;52.390;13.028;2023-01-26T03:25:28;3.30;99.90
22578;DHT22;11455;52.390;13.028;2023-01-26T03:28:12;3.30;99.90
22578;DHT22;11455;52.390;13.028;2023-01-26T03:30:38;3.30;99.90
22578;DHT22;11455;52.390;13.028;2023-01-26T03:33:05;3.30;99.90
22578;DHT22;11455;52.390;13.028;2023-01-26T03:35:31;3.40;99.90
22578;DHT22;11455;52.390;13.028;2023-01-26T03:37:59;3.40;99.90
22578;DHT22;11455;52.390;13.028;2023-01-26T03:40:38;3.40;99.90
22578;DHT22;11455;52.390;13.028;2023-01-26T03:43:22;3.40;99.90
22578;DHT22;11455;52.390;13.028;2023-01-26T03:46:07;3.40;99.90
22578;DHT22;11455;52.390;13.028;2023-01-26T03:48:52;3.40;99.90
22578;DHT22;11455;52.390;13.028;2023-01-26T03:51:37;3.50;99.90
22578;DHT22;11455;52.390;13.028;2023-01-26T03:54:21;3.40;99.90
22578;DHT22;11455;52.390;13.028;2023-01-26T03:57:05;3.30;99.90
22578;DHT22;11455;52.390;13.028;2023-01-26T03:59:32;3.30;99.90
22578;DHT22;11455;52.390;13.028;2023-01-26T04:02:09;3.40;99.90
22578;DHT22;11455;52.390;13.028;2023-01-26T04:04:55;3.40;99.90
22578;DHT22;11455;52.390;13.028;2023-01-26T04:07:43;3.20;99.90
22578;DHT22;11455;52.390;13.028;2023-01-26T04:10:28;3.20;99.90
22578;DHT22;11455;52.390;13.028;2023-01-26T04:12:54;3.20;99.90
22578;DHT22;11455;52.390;13.028;2023-01-26T04:15:48;3.20;99.90
22578;DHT22;11455;52.390;13.028;2023-01-26T04:18:33;3.20;99.90
22578;DHT22;11455;52.390;13.028;2023-01-26T04:21:20;3.20;99.90
22578;DHT22;11455;52.390;13.028;2023-01-26T04:23:59;3.20;99.90
22578;DHT22;11455;52.390;13.028;2023-01-26T04:26:28;3.20;99.90
22578;DHT22;11455;52.390;13.028;2023-01-26T04:29:04;3.20;99.90
22578;DHT22;11455;52.390;13.028;2023-01-26T04:31:30;3.30;99.90
22578;DHT22;11455;52.390;13.028;2023-01-26T04:33:56;3.40;99.90
22578;DHT22;11455;52.390;13.028;2023-01-26T04:36:21;3.40;99.90
22578;DHT22;11455;52.390;13.028;2023-01-26T04:38:59;3.40;99.90
22578;DHT22;11455;52.390;13.028;2023-01-26T04:41:25;3.40;99.90
22578;DHT22;11455;52.390;13.028;2023-01-26T04:43:59;3.40;99.90
22578;DHT22;11455;52.390;13.028;2023-01-26T04:46:25;3.40;99.90
22578;DHT22;11455;52.390;13.028;2023-01-26T04:48:51;3.40;99.90
22578;DHT22;11455;52.390;13.028;2023-01-26T04:51:17;3.40;99.90
22578;DHT22;11455;52.390;13.028;2023-01-26T04:53:44;3.30;99.90
22578;DHT22;11455;52.390;13.028;2023-01-26T04:56:16;3.40;99.90
22578;DHT22;11455;52.390;13.028;2023-01-26T04:58:43;3.40;99.90
22578;DHT22;11455;52.390;13.028;2023-01-26T05:01:11;3.30;99.90
22578;DHT22;11455;52.390;13.028;2023-01-26T05:03:37;3.30;99.90
22578;DHT22;11455;52.390;13.028;2023-01-26T05:06:03;3.20;99.90
22578;DHT22;11455;52.390;13.028;2023-01-26T05:08:29;3.10;99.90
22578;DHT22;11455;52.390;13.028;2023-01-26T05:10:54;3.00;99.90
22578;DHT22;11455;52.390;13.028;2023-01-26T05:13:43;3.00;99.90
22578;DHT22;11455;52.390;13.028;2023-01-26T05:16:29;3.00;99.90
22578;DHT22;11455;52.390;13.028;2023-01-26T05:19:06;3.00;99.90
22578;DHT22;11455;52.390;13.028;2023-01-26T05:21:55;3.10;99.90
22578;DHT22;11455;52.390;13.028;2023-01-26T05:24:21;3.20;99.90
22578;DHT22;11455;52.390;13.028;2023-01-26T05:27:01;3.20;99.90
22578;DHT22;11455;52.390;13.028;2023-01-26T05:29:49;3.30;99.90
22578;DHT22;11455;52.390;13.028;2023-01-26T05:32:15;3.30;99.90
22578;DHT22;11455;52.390;13.028;2023-01-26T05:34:41;3.40;99.90
22578;DHT22;11455;52.390;13.028;2023-01-26T05:37:07;3.50;99.90
22578;DHT22;11455;52.390;13.028;2023-01-26T05:39:34;3.40;99.90
22578;DHT22;11455;52.390;13.028;2023-01-26T05:42:01;3.30;99.90
22578;DHT22;11455;52.390;13.028;2023-01-26T05:44:56;3.20;99.90
22578;DHT22;11455;52.390;13.028;2023-01-26T05:47:24;3.10;99.90
22578;DHT22;11455;52.390;13.028;2023-01-26T05:49:50;3.10;99.90
22578;DHT22;11455;52.390;13.028;2023-01-26T05:52:23;3.10;99.90
22578;DHT22;11455;52.390;13.028;2023-01-26T05:54:49;3.10;99.90
22578;DHT22;11455;52.390;13.028;2023-01-26T05:57:16;3.00;99.90
22578;DHT22;11455;52.390;13.028;2023-01-26T05:59:47;2.90;99.90
22578;DHT22;11455;52.390;13.028;2023-01-26T06:02:12;2.80;99.90
22578;DHT22;11455;52.390;13.028;2023-01-26T06:04:43;2.70;99.90
22578;DHT22;11455;52.390;13.028;2023-01-26T06:07:09;2.70;99.90
22578;DHT22;11455;52.390;13.028;2023-01-26T06:10:13;2.60;99.90
22578;DHT22;11455;52.390;13.028;2023-01-26T06:12:58;2.50;99.90
22578;DHT22;11455;52.390;13.028;2023-01-26T06:15:50;2.50;99.90
22578;DHT22;11455;52.390;13.028;2023-01-26T06:18:18;2.40;99.90
22578;DHT22;11455;52.390;13.028;2023-01-26T06:20:50;2.30;99.90
22578;DHT22;11455;52.390;13.028;2023-01-26T06:23:16;2.30;99.90
22578;DHT22;11455;52.390;13.028;2023-01-26T06:25:43;2.30;99.90
22578;DHT22;11455;52.390;13.028;2023-01-26T06:28:11;2.30;99.90
22578;DHT22;11455;52.390;13.028;2023-01-26T06:30:37;2.30;99.90
22578;DHT22;11455;52.390;13.028;2023-01-26T06:33:06;2.40;99.90
22578;DHT22;11455;52.390;13.028;2023-01-26T06:35:35;2.40;99.90
22578;DHT22;11455;52.390;13.028;2023-01-26T06:38:08;2.50;99.90
22578;DHT22;11455;52.390;13.028;2023-01-26T06:40:34;2.50;99.90
22578;DHT22;11455;52.390;13.028;2023-01-26T06:43:00;2.50;99.90
22578;DHT22;11455;52.390;13.028;2023-01-26T06:45:26;2.40;99.90
22578;DHT22;11455;52.390;13.028;2023-01-26T06:47:52;2.40;99.90
22578;DHT22;11455;52.390;13.028;2023-01-26T06:50:19;2.40;99.90
22578;DHT22;11455;52.390;13.028;2023-01-26T06:52:46;2.30;99.90
22578;DHT22;11455;52.390;13.028;2023-01-26T06:55:37;2.30;99.90
22578;DHT22;11455;52.390;13.028;2023-01-26T06:58:28;2.30;99.90
22578;DHT22;11455;52.390;13.028;2023-01-26T07:01:19;2.20;99.90
22578;DHT22;11455;52.390;13.028;2023-01-26T07:03:48;2.20;99.90
22578;DHT22;11455;52.390;13.028;2023-01-26T07:06:15;2.20;99.90
22578;DHT22;11455;52.390;13.028;2023-01-26T07:08:40;2.10;99.90
22578;DHT22;11455;52.390;13.028;2023-01-26T07:11:06;2.10;99.90
22578;DHT22;11455;52.390;13.028;2023-01-26T07:13:32;2.10;99.90
22578;DHT22;11455;52.390;13.028;2023-01-26T07:16:01;2.10;99.90
22578;DHT22;11455;52.390;13.028;2023-01-26T07:18:27;2.00;99.90
22578;DHT22;11455;52.390;13.028;2023-01-26T07:20:52;2.10;99.90
22578;DHT22;11455;52.390;13.028;2023-01-26T07:23:18;2.10;99.90
22578;DHT22;11455;52.390;13.028;2023-01-26T07:25:44;2.10;99.90
22578;DHT22;11455;52.390;13.028;2023-01-26T07:28:12;2.10;99.90
22578;DHT22;11455;52.390;13.028;2023-01-26T07:30:38;2.00;99.90
22578;DHT22;11455;52.390;13.028;2023-01-26T07:33:03;1.90;99.90
22578;DHT22;11455;52.390;13.028;2023-01-26T07:35:29;1.90;99.90
22578;DHT22;11455;52.390;13.028;2023-01-26T07:37:55;2.00;99.90
22578;DHT22;11455;52.390;13.028;2023-01-26T07:40:22;2.00;99.90
22578;DHT22;11455;52.390;13.028;2023-01-26T07:42:48;2.00;99.90
22578;DHT22;11455;52.390;13.028;2023-01-26T07:45:18;2.00;99.90
22578;DHT22;11455;52.390;13.028;2023-01-26T07:47:44;2.00;99.90
22578;DHT22;11455;52.390;13.028;2023-01-26T07:50:10;2.00;99.90
22578;DHT22;11455;52.390;13.028;2023-01-26T07:52:36;2.10;99.90
22578;DHT22;11455;52.390;13.028;2023-01-26T07:55:02;2.10;99.90
22578;DHT22;11455;52.390;13.028;2023-01-26T07:57:28;2.10;99.90
22578;DHT22;11455;52.390;13.028;2023-01-26T07:59:54;2.00;99.90
22578;DHT22;11455;52.390;13.028;2023-01-26T08:02:23;2.00;99.90
22578;DHT22;11455;52.390;13.028;2023-01-26T08:04:48;2.10;99.90
22578;DHT22;11455;52.390;13.028;2023-01-26T08:07:14;2.20;99.90
22578;DHT22;11455;52.390;13.028;2023-01-26T08:09:40;2.10;99.90
22578;DHT22;11455;52.390;13.028;2023-01-26T08:12:05;2.10;99.90
22578;DHT22;11455;52.390;13.028;2023-01-26T08:14:32;2.00;99.90
22578;DHT22;11455;52.390;13.028;2023-01-26T08:16:57;2.00;99.90
22578;DHT22;11455;52.390;13.028;2023-01-26T08:19:23;1.90;99.90
22578;DHT22;11455;52.390;13.028;2023-01-26T08:21:49;1.90;99.90
22578;DHT22;11455;52.390;13.028;2023-01-26T08:24:14;1.90;99.90
22578;DHT22;11455;52.390;13.028;2023-01-26T08:26:40;1.90;99.90
22578;DHT22;11455;52.390;13.028;2023-01-26T08:29:06;2.00;99.90
22578;DHT22;11455;52.390;13.028;2023-01-26T08:31:35;1.90;99.90
22578;DHT22;11455;52.390;13.028;2023-01-26T08:34:00;1.90;99.90
22578;DHT22;11455;52.390;13.028;2023-01-26T08:36:26;1.90;99.90
22578;DHT22;11455;52.390;13.028;2023-01-26T08:38:53;2.00;99.90
22578;DHT22;11455;52.390;13.028;2023-01-26T08:41:18;2.00;99.90
22578;DHT22;11455;52.390;13.028;2023-01-26T08:43:44;2.10;99.90
22578;DHT22;11455;52.390;13.028;2023-01-26T08:46:10;2.10;99.90
22578;DHT22;11455;52.390;13.028;2023-01-26T08:48:35;2.00;99.90
22578;DHT22;11455;52.390;13.028;2023-01-26T08:51:02;2.10;99.90
22578;DHT22;11455;52.390;13.028;2023-01-26T08:53:29;2.20;99.90
22578;DHT22;11455;52.390;13.028;2023-01-26T08:55:55;2.30;99.90
22578;DHT22;11455;52.390;13.028;2023-01-26T08:58:21;2.30;99.90
22578;DHT22;11455;52.390;13.028;2023-01-26T09:00:47;2.20;99.90
22578;DHT22;11455;52.390;13.028;2023-01-26T09:03:13;2.20;99.90
22578;DHT22;11455;52.390;13.028;2023-01-26T09:05:39;2.20;99.90
22578;DHT22;11455;52.390;13.028;2023-01-26T09:08:05;2.30;99.90
22578;DHT22;11455;52.390;13.028;2023-01-26T09:10:31;2.40;99.90
22578;DHT22;11455;52.390;13.028;2023-01-26T09:12:57;2.40;99.90
22578;DHT22;11455;52.390;13.028;2023-01-26T09:15:23;2.50;99.90
22578;DHT22;11455;52.390;13.028;2023-01-26T09:17:49;2.50;99.90
22578;DHT22;11455;52.390;13.028;2023-01-26T09:20:15;2.60;99.90
22578;DHT22;11455;52.390;13.028;2023-01-26T09:22:48;2.50;99.90
22578;DHT22;11455;52.390;13.028;2023-01-26T09:25:13;2.40;99.90
22578;DHT22;11455;52.390;13.028;2023-01-26T09:27:39;2.30;99.90
22578;DHT22;11455;52.390;13.028;2023-01-26T09:30:05;2.20;99.90
22578;DHT22;11455;52.390;13.028;2023-01-26T09:32:32;2.20;99.90
22578;DHT22;11455;52.390;13.028;2023-01-26T09:34:59;2.00;99.90
22578;DHT22;11455;52.390;13.028;2023-01-26T09:37:25;2.00;99.90
22578;DHT22;11455;52.390;13.028;2023-01-26T09:39:50;2.00;99.90
22578;DHT22;11455;52.390;13.028;2023-01-26T09:42:36;1.90;99.90
22578;DHT22;11455;52.390;13.028;2023-01-26T09:49:55;2.00;99.90
22578;DHT22;11455;52.390;13.028;2023-01-26T09:52:34;2.00;99.90
22578;DHT22;11455;52.390;13.028;2023-01-26T09:55:08;2.00;99.90
22578;DHT22;11455;52.390;13.028;2023-01-26T10:08:07;2.40;99.90
22578;DHT22;11455;52.390;13.028;2023-01-26T10:10:35;2.60;99.90
22578;DHT22;11455;52.390;13.028;2023-01-26T10:13:02;2.70;99.90
22578;DHT22;11455;52.390;13.028;2023-01-26T10:15:38;2.50;99.90
22578;DHT22;11455;52.390;13.028;2023-01-26T10:18:05;2.40;99.90
22578;DHT22;11455;52.390;13.028;2023-01-26T10:20:33;2.50;99.90
22578;DHT22;11455;52.390;13.028;2023-01-26T10:25:35;2.60;99.90
22578;DHT22;11455;52.390;13.028;2023-01-26T10:30:38;2.70;99.90
22578;DHT22;11455;52.390;13.028;2023-01-26T10:33:04;2.60;99.90
22578;DHT22;11455;52.390;13.028;2023-01-26T10:35:36;2.50;99.90
22578;DHT22;11455;52.390;13.028;2023-01-26T10:38:01;2.40;99.90
22578;DHT22;11455;52.390;13.028;2023-01-26T10:40:27;2.30;99.90
22578;DHT22;11455;52.390;13.028;2023-01-26T10:42:54;2.20;99.90
22578;DHT22;11455;52.390;13.028;2023-01-26T10:45:25;2.20;99.90
22578;DHT22;11455;52.390;13.028;2023-01-26T10:50:37;2.30;99.90
22578;DHT22;11455;52.390;13.028;2023-01-26T10:53:03;2.40;99.90
22578;DHT22;11455;52.390;13.028;2023-01-26T10:55:30;2.40;99.90
22578;DHT22;11455;52.390;13.028;2023-01-26T10:57:56;2.50;99.90
22578;DHT22;11455;52.390;13.028;2023-01-26T11:00:23;2.60;99.90
22578;DHT22;11455;52.390;13.028;2023-01-26T11:05:34;2.60;99.90
22578;DHT22;11455;52.390;13.028;2023-01-26T11:08:08;2.60;99.90
22578;DHT22;11455;52.390;13.028;2023-01-26T11:10:51;2.70;99.90
22578;DHT22;11455;52.390;13.028;2023-01-26T11:13:18;2.80;99.90
22578;DHT22;11455;52.390;13.028;2023-01-26T11:16:29;2.80;99.90
22578;DHT22;11455;52.390;13.028;2023-01-26T11:23:41;2.90;99.90
22578;DHT22;11455;52.390;13.028;2023-01-26T11:41:56;3.00;99.90
22578;DHT22;11455;52.390;13.028;2023-01-26T11:58:00;2.70;99.90
22578;DHT22;11455;52.390;13.028;2023-01-26T12:00:38;2.80;99.90
22578;DHT22;11455;52.390;13.028;2023-01-26T12:03:07;2.90;99.90
22578;DHT22;11455;52.390;13.028;2023-01-26T12:05:40;2.80;99.90
22578;DHT22;11455;52.390;13.028;2023-01-26T12:08:11;2.80;99.90
22578;DHT22;11455;52.390;13.028;2023-01-26T12:15:51;2.80;99.90
22578;DHT22;11455;52.390;13.028;2023-01-26T12:18:21;2.80;99.90
22578;DHT22;11455;52.390;13.028;2023-01-26T12:20:53;2.90;99.90
22578;DHT22;11455;52.390;13.028;2023-01-26T12:25:46;3.00;99.90
22578;DHT22;11455;52.390;13.028;2023-01-26T12:31:05;3.00;99.90
22578;DHT22;11455;52.390;13.028;2023-01-26T12:33:32;3.00;99.90
22578;DHT22;11455;52.390;13.028;2023-01-26T12:38:53;2.80;99.90
22578;DHT22;11455;52.390;13.028;2023-01-26T12:46:15;2.80;99.90
22578;DHT22;11455;52.390;13.028;2023-01-26T12:48:52;2.80;99.90
22578;DHT22;11455;52.390;13.028;2023-01-26T12:51:24;2.80;99.90
22578;DHT22;11455;52.390;13.028;2023-01-26T12:54:06;2.90;99.90
22578;DHT22;11455;52.390;13.028;2023-01-26T12:56:44;2.90;99.90
22578;DHT22;11455;52.390;13.028;2023-01-26T12:59:22;3.00;99.90
22578;DHT22;11455;52.390;13.028;2023-01-26T13:01:50;3.00;99.90
22578;DHT22;11455;52.390;13.028;2023-01-26T13:04:16;3.10;99.90
22578;DHT22;11455;52.390;13.028;2023-01-26T13:06:42;3.10;99.90
22578;DHT22;11455;52.390;13.028;2023-01-26T13:09:18;3.00;99.90
22578;DHT22;11455;52.390;13.028;2023-01-26T13:14:26;2.80;99.90
22578;DHT22;11455;52.390;13.028;2023-01-26T13:16:52;2.80;99.90
22578;DHT22;11455;52.390;13.028;2023-01-26T13:22:26;2.80;99.90
22578;DHT22;11455;52.390;13.028;2023-01-26T13:35:17;2.50;99.90
22578;DHT22;11455;52.390;13.028;2023-01-26T13:37:59;2.50;99.90
22578;DHT22;11455;52.390;13.028;2023-01-26T13:42:56;2.40;99.90
22578;DHT22;11455;52.390;13.028;2023-01-26T13:45:31;2.40;99.90
22578;DHT22;11455;52.390;13.028;2023-01-26T13:47:59;2.30;99.90
22578;DHT22;11455;52.390;13.028;2023-01-26T13:50:30;2.20;99.90
22578;DHT22;11455;52.390;13.028;2023-01-26T13:52:56;2.30;99.90
22578;DHT22;11455;52.390;13.028;2023-01-26T13:55:26;2.20;99.90
22578;DHT22;11455;52.390;13.028;2023-01-26T13:58:12;2.20;99.90
22578;DHT22;11455;52.390;13.028;2023-01-26T14:00:38;2.10;99.90
22578;DHT22;11455;52.390;13.028;2023-01-26T14:03:03;2.00;99.90
22578;DHT22;11455;52.390;13.028;2023-01-26T14:05:29;2.00;99.90
22578;DHT22;11455;52.390;13.028;2023-01-26T14:07:56;2.10;99.90
22578;DHT22;11455;52.390;13.028;2023-01-26T14:10:22;2.10;99.90
22578;DHT22;11455;52.390;13.028;2023-01-26T14:12:51;2.00;99.90
22578;DHT22;11455;52.390;13.028;2023-01-26T14:15:22;2.00;99.90
22578;DHT22;11455;52.390;13.028;2023-01-26T14:17:51;2.00;99.90
22578;DHT22;11455;52.390;13.028;2023-01-26T14:20:23;2.00;99.90
22578;DHT22;11455;52.390;13.028;2023-01-26T14:23:12;1.90;99.90
22578;DHT22;11455;52.390;13.028;2023-01-26T14:25:38;1.90;99.90
22578;DHT22;11455;52.390;13.028;2023-01-26T14:28:04;1.90;99.90
22578;DHT22;11455;52.390;13.028;2023-01-26T14:30:31;1.90;99.90
22578;DHT22;11455;52.390;13.028;2023-01-26T14:35:28;1.80;99.90
22578;DHT22;11455;52.390;13.028;2023-01-26T14:40:46;1.70;99.90
22578;DHT22;11455;52.390;13.028;2023-01-26T14:43:13;1.70;99.90
22578;DHT22;11455;52.390;13.028;2023-01-26T14:45:40;1.80;99.90
22578;DHT22;11455;52.390;13.028;2023-01-26T14:48:07;1.70;99.90
22578;DHT22;11455;52.390;13.028;2023-01-26T14:50:35;1.60;99.90
22578;DHT22;11455;52.390;13.028;2023-01-26T14:53:02;1.60;99.90
22578;DHT22;11455;52.390;13.028;2023-01-26T14:55:30;1.60;99.90
22578;DHT22;11455;52.390;13.028;2023-01-26T14:58:02;1.60;99.90
22578;DHT22;11455;52.390;13.028;2023-01-26T15:00:34;1.70;99.90
22578;DHT22;11455;52.390;13.028;2023-01-26T15:03:04;1.70;99.90
22578;DHT22;11455;52.390;13.028;2023-01-26T15:05:33;1.80;99.90
22578;DHT22;11455;52.390;13.028;2023-01-26T15:08:19;1.80;99.90
22578;DHT22;11455;52.390;13.028;2023-01-26T15:15:39;1.90;99.90
22578;DHT22;11455;52.390;13.028;2023-01-26T15:23:31;1.90;99.90
22578;DHT22;11455;52.390;13.028;2023-01-26T15:25:55;1.90;99.90
22578;DHT22;11455;52.390;13.028;2023-01-26T15:28:27;1.90;99.90
22578;DHT22;11455;52.390;13.028;2023-01-26T15:30:54;2.00;99.90
22578;DHT22;11455;52.390;13.028;2023-01-26T15:33:40;2.00;99.90
22578;DHT22;11455;52.390;13.028;2023-01-26T15:38:57;2.20;99.90
22578;DHT22;11455;52.390;13.028;2023-01-26T15:41:26;2.20;99.90
22578;DHT22;11455;52.390;13.028;2023-01-26T15:43:52;2.20;99.90
22578;DHT22;11455;52.390;13.028;2023-01-26T15:46:17;2.20;99.90
22578;DHT22;11455;52.390;13.028;2023-01-26T15:48:43;2.10;99.90
22578;DHT22;11455;52.390;13.028;2023-01-26T15:51:10;2.10;99.90
22578;DHT22;11455;52.390;13.028;2023-01-26T15:53:36;2.00;99.90
22578;DHT22;11455;52.390;13.028;2023-01-26T15:56:02;2.10;99.90
22578;DHT22;11455;52.390;13.028;2023-01-26T15:58:27;2.20;99.90
22578;DHT22;11455;52.390;13.028;2023-01-26T16:00:55;2.20;99.90
22578;DHT22;11455;52.390;13.028;2023-01-26T16:03:21;2.20;99.90
22578;DHT22;11455;52.390;13.028;2023-01-26T16:05:47;2.10;99.90
22578;DHT22;11455;52.390;13.028;2023-01-26T16:08:13;2.10;99.90
22578;DHT22;11455;52.390;13.028;2023-01-26T16:10:39;2.10;99.90
22578;DHT22;11455;52.390;13.028;2023-01-26T16:13:09;2.20;99.90
22578;DHT22;11455;52.390;13.028;2023-01-26T16:15:42;2.20;99.90
22578;DHT22;11455;52.390;13.028;2023-01-26T16:18:10;2.20;99.90
22578;DHT22;11455;52.390;13.028;2023-01-26T16:20:40;2.30;99.90
22578;DHT22;11455;52.390;13.028;2023-01-26T16:25:40;2.40;99.90
22578;DHT22;11455;52.390;13.028;2023-01-26T16:28:08;2.30;99.90
22578;DHT22;11455;52.390;13.028;2023-01-26T16:30:34;2.30;99.90
22578;DHT22;11455;52.390;13.028;2023-01-26T16:32:59;2.20;99.90
22578;DHT22;11455;52.390;13.028;2023-01-26T16:35:25;2.20;99.90
22578;DHT22;11455;52.390;13.028;2023-01-26T16:37:53;2.20;99.90
22578;DHT22;11455;52.390;13.028;2023-01-26T16:40:18;2.20;99.90
22578;DHT22;11455;52.390;13.028;2023-01-26T16:42:49;2.20;99.90
22578;DHT22;11455;52.390;13.028;2023-01-26T16:45:19;2.20;99.90
22578;DHT22;11455;52.390;13.028;2023-01-26T16:47:49;2.10;99.90
22578;DHT22;11455;52.390;13.028;2023-01-26T16:50:16;2.10;99.90
22578;DHT22;11455;52.390;13.028;2023-01-26T16:52:42;2.00;99.90
22578;DHT22;11455;52.390;13.028;2023-01-26T16:55:09;1.90;99.90
22578;DHT22;11455;52.390;13.028;2023-01-26T16:57:37;1.80;99.90
22578;DHT22;11455;52.390;13.028;2023-01-26T17:00:03;1.80;99.90
22578;DHT22;11455;52.390;13.028;2023-01-26T17:02:31;1.70;99.90
22578;DHT22;11455;52.390;13.028;2023-01-26T17:04:57;1.70;99.90
22578;DHT22;11455;52.390;13.028;2023-01-26T17:07:23;1.60;99.90
22578;DHT22;11455;52.390;13.028;2023-01-26T17:09:49;1.60;99.90
22578;DHT22;11455;52.390;13.028;2023-01-26T17:12:15;1.70;99.90
22578;DHT22;11455;52.390;13.028;2023-01-26T17:14:40;1.80;99.90
22578;DHT22;11455;52.390;13.028;2023-01-26T17:17:06;1.80;99.90
22578;DHT22;11455;52.390;13.028;2023-01-26T17:19:32;1.80;99.90
22578;DHT22;11455;52.390;13.028;2023-01-26T17:21:57;1.80;99.90
22578;DHT22;11455;52.390;13.028;2023-01-26T17:24:25;1.80;99.90
22578;DHT22;11455;52.390;13.028;2023-01-26T17:26:51;1.80;99.90
22578;DHT22;11455;52.390;13.028;2023-01-26T17:29:18;1.80;99.90
22578;DHT22;11455;52.390;13.028;2023-01-26T17:31:43;1.70;99.90
22578;DHT22;11455;52.390;13.028;2023-01-26T17:34:09;1.80;99.90
22578;DHT22;11455;52.390;13.028;2023-01-26T17:36:35;1.90;99.90
22578;DHT22;11455;52.390;13.028;2023-01-26T17:39:00;2.00;99.90
22578;DHT22;11455;52.390;13.028;2023-01-26T17:41:26;2.00;99.90
22578;DHT22;11455;52.390;13.028;2023-01-26T17:43:53;2.00;99.90
22578;DHT22;11455;52.390;13.028;2023-01-26T17:46:19;1.90;99.90
22578;DHT22;11455;52.390;13.028;2023-01-26T17:48:45;1.90;99.90